createdAt,value
2023-04-09T00:02:15.213Z,4.80
2023-04-09T00:05:16.390Z,4.80
2023-04-09T00:08:17.685Z,4.80
2023-04-09T00:11:18.523Z,4.80
2023-04-09T00:14:20.146Z,4.80
2023-04-09T00:17:21.855Z,4.80
2023-04-09T00:20:23.148Z,4.70
2023-04-09T00:23:23.838Z,4.80
2023-04-09T00:26:24.817Z,4.80
2023-04-09T00:29:26.421Z,4.80
2023-04-09T00:32:27.810Z,4.80
2023-04-09T00:35:29.020Z,4.80
2023-04-09T00:38:29.968Z,4.80
2023-04-09T00:41:30.712Z,4.80
2023-04-09T00:44:31.702Z,4.80
2023-04-09T00:47:35.095Z,4.80
2023-04-09T00:50:36.609Z,4.70
2023-04-09T00:53:37.952Z,4.70
2023-04-09T00:56:39.258Z,4.60
2023-04-09T00:59:40.394Z,4.60
2023-04-09T01:02:42.607Z,4.60
2023-04-09T01:06:30.006Z,4.60
2023-04-09T01:09:39.547Z,4.70
2023-04-09T01:13:07.530Z,4.60
2023-04-09T01:16:13.074Z,4.70
2023-04-09T01:19:51.531Z,4.70
2023-04-09T01:23:28.068Z,4.70
2023-04-09T01:26:37.771Z,4.60
2023-04-09T01:29:50.093Z,4.60
2023-04-09T01:32:54.609Z,4.60
2023-04-09T01:35:57.801Z,4.60
2023-04-09T01:39:02.549Z,4.50
2023-04-09T01:42:04.722Z,4.50
2023-04-09T01:45:07.588Z,4.40
2023-04-09T01:48:09.630Z,4.30
2023-04-09T01:51:14.289Z,4.30
2023-04-09T01:54:17.371Z,4.20
2023-04-09T01:57:18.383Z,4.10
2023-04-09T02:00:20.722Z,4.00
2023-04-09T02:03:38.597Z,4.00
2023-04-09T02:06:48.901Z,3.90
2023-04-09T02:09:53.485Z,3.90
2023-04-09T02:12:57.038Z,3.80
2023-04-09T02:16:01.975Z,3.90
2023-04-09T02:19:03.355Z,3.80
2023-04-09T02:22:05.663Z,3.80
2023-04-09T02:25:07.400Z,3.70
2023-04-09T02:28:08.416Z,3.70
2023-04-09T02:31:09.368Z,3.70
2023-04-09T02:34:10.429Z,3.70
2023-04-09T02:37:11.360Z,3.60
2023-04-09T02:40:12.906Z,3.50
2023-04-09T02:43:14.380Z,3.40
2023-04-09T02:46:15.805Z,3.30
2023-04-09T02:49:17.059Z,3.30
2023-04-09T02:52:20.469Z,3.20
2023-04-09T02:55:22.423Z,3.20
2023-04-09T02:58:23.449Z,3.20
2023-04-09T03:01:24.375Z,3.10
2023-04-09T03:04:25.752Z,3.10
2023-04-09T03:07:26.931Z,3.00
2023-04-09T03:10:27.720Z,3.00
2023-04-09T03:13:28.983Z,3.10
2023-04-09T03:16:30.130Z,3.10
2023-04-09T03:19:34.391Z,3.20
2023-04-09T03:22:40.188Z,3.20
2023-04-09T03:26:07.184Z,3.20
2023-04-09T03:29:15.786Z,3.20
2023-04-09T03:32:18.943Z,3.20
2023-04-09T03:35:20.834Z,3.10
2023-04-09T03:38:22.347Z,3.10
2023-04-09T03:41:23.786Z,3.00
2023-04-09T03:44:25.957Z,2.90
2023-04-09T03:47:34.652Z,2.70
2023-04-09T03:50:44.896Z,2.70
2023-04-09T03:53:49.876Z,2.60
2023-04-09T03:56:51.114Z,2.70
2023-04-09T03:59:56.934Z,2.60
2023-04-09T04:02:59.654Z,2.50
2023-04-09T04:06:21.227Z,2.60
2023-04-09T04:09:46.890Z,2.60
2023-04-09T04:12:51.591Z,2.50
2023-04-09T04:15:59.769Z,2.50
2023-04-09T04:19:01.279Z,2.40
2023-04-09T04:22:05.133Z,2.40
2023-04-09T04:25:10.605Z,2.50
2023-04-09T04:28:12.229Z,2.50
2023-04-09T04:31:16.205Z,2.50
2023-04-09T04:34:18.059Z,2.50
2023-04-09T04:37:23.368Z,2.50
2023-04-09T04:40:28.274Z,2.40
2023-04-09T04:43:34.480Z,2.20
2023-04-09T04:46:35.940Z,2.20
2023-04-09T04:49:37.259Z,2.20
2023-04-09T04:52:40.834Z,2.10
2023-04-09T04:55:42.301Z,2.10
2023-04-09T04:58:47.589Z,2.00
2023-04-09T05:01:51.464Z,2.00
2023-04-09T05:04:52.822Z,2.00
2023-04-09T05:07:59.490Z,2.00
2023-04-09T05:11:00.691Z,2.00
2023-04-09T05:14:09.235Z,2.00
2023-04-09T05:17:10.746Z,2.00
2023-04-09T05:20:17.237Z,1.90
2023-04-09T05:23:28.160Z,2.00
2023-04-09T05:26:29.532Z,2.00
2023-04-09T05:29:32.371Z,2.00
2023-04-09T05:32:34.657Z,2.10
2023-04-09T05:35:39.829Z,2.20
2023-04-09T05:38:41.278Z,2.40
2023-04-09T05:41:45.029Z,2.50
2023-04-09T05:45:12.264Z,2.70
2023-04-09T05:48:21.350Z,2.90
2023-04-09T05:51:22.812Z,3.10
2023-04-09T05:54:24.211Z,3.30
2023-04-09T05:57:25.616Z,3.30
2023-04-09T06:00:32.319Z,3.30
2023-04-09T06:03:33.468Z,3.40
2023-04-09T06:06:34.954Z,3.60
2023-04-09T06:09:36.214Z,3.60
2023-04-09T06:12:37.558Z,3.60
2023-04-09T06:15:39.868Z,3.70
2023-04-09T06:18:42.664Z,3.90
2023-04-09T06:21:43.674Z,4.10
2023-04-09T06:24:44.525Z,4.20
2023-04-09T06:27:45.785Z,4.30
2023-04-09T06:30:47.282Z,4.40
2023-04-09T06:33:48.220Z,4.50
2023-04-09T06:36:49.716Z,4.70
2023-04-09T06:40:00.423Z,4.80
2023-04-09T06:43:02.457Z,5.00
2023-04-09T06:46:11.678Z,5.20
2023-04-09T06:49:12.779Z,5.20
2023-04-09T06:52:13.648Z,5.10
2023-04-09T06:55:14.518Z,5.30
2023-04-09T06:58:16.699Z,5.30
2023-04-09T07:01:17.904Z,5.40
2023-04-09T07:04:19.304Z,5.60
2023-04-09T07:07:21.205Z,5.50
2023-04-09T07:10:22.520Z,5.50
2023-04-09T07:13:23.444Z,5.50
2023-04-09T07:16:25.028Z,5.20
2023-04-09T07:19:26.023Z,5.30
2023-04-09T07:22:29.285Z,5.60
2023-04-09T07:25:30.629Z,6.00
2023-04-09T07:28:32.352Z,6.30
2023-04-09T07:31:35.224Z,6.50
2023-04-09T07:34:37.891Z,6.80
2023-04-09T07:37:41.698Z,7.20
2023-04-09T07:40:42.760Z,7.50
2023-04-09T07:43:43.956Z,7.90
2023-04-09T07:46:45.168Z,7.50
2023-04-09T07:49:47.294Z,7.80
2023-04-09T07:52:48.653Z,7.80
2023-04-09T07:55:52.086Z,7.90
2023-04-09T07:58:53.410Z,7.90
2023-04-09T08:01:55.269Z,7.60
2023-04-09T08:04:56.732Z,7.60
2023-04-09T08:07:57.838Z,7.80
2023-04-09T08:10:59.087Z,7.70
2023-04-09T08:14:04.774Z,7.80
2023-04-09T08:17:06.029Z,7.20
2023-04-09T08:20:07.762Z,7.30
2023-04-09T08:23:08.896Z,7.30
2023-04-09T08:26:09.997Z,7.50
2023-04-09T08:29:13.803Z,8.40
2023-04-09T08:32:15.373Z,9.30
2023-04-09T08:35:16.573Z,9.80
2023-04-09T08:38:19.424Z,9.80
2023-04-09T08:41:22.579Z,10.50
2023-04-09T08:44:27.064Z,10.40
2023-04-09T08:47:28.561Z,10.70
2023-04-09T08:50:36.463Z,10.90
2023-04-09T08:53:39.315Z,11.10
2023-04-09T08:56:40.435Z,10.70
2023-04-09T08:59:42.077Z,11.20
2023-04-09T09:03:08.686Z,11.40
2023-04-09T09:06:22.908Z,11.50
2023-04-09T09:09:23.914Z,10.80
2023-04-09T09:12:43.256Z,11.10
2023-04-09T09:15:44.572Z,11.90
2023-04-09T09:18:45.635Z,12.00
2023-04-09T09:22:02.392Z,12.10
2023-04-09T09:25:13.089Z,12.00
2023-04-09T09:28:14.159Z,12.50
2023-04-09T09:31:18.175Z,12.00
2023-04-09T09:34:22.598Z,12.30
2023-04-09T09:37:31.588Z,12.10
2023-04-09T09:40:33.022Z,12.40
2023-04-09T09:43:43.731Z,12.50
2023-04-09T09:46:44.553Z,11.90
2023-04-09T09:49:49.174Z,12.30
2023-04-09T09:52:53.346Z,13.60
2023-04-09T09:55:57.474Z,12.80
2023-04-09T09:59:16.389Z,12.90
2023-04-09T10:02:24.260Z,12.30
2023-04-09T10:05:27.791Z,13.20
2023-04-09T10:08:30.702Z,12.40
2023-04-09T10:11:36.833Z,14.00
2023-04-09T10:14:38.501Z,15.00
2023-04-09T10:17:39.805Z,16.00
2023-04-09T10:20:52.964Z,16.20
2023-04-09T10:23:55.661Z,14.10
2023-04-09T10:27:10.733Z,14.20
2023-04-09T10:30:34.899Z,15.50
2023-04-09T10:33:38.355Z,15.10
2023-04-09T10:36:39.148Z,14.30
2023-04-09T10:39:45.960Z,14.10
2023-04-09T10:42:48.218Z,16.10
2023-04-09T10:45:53.762Z,16.20
2023-04-09T10:49:18.600Z,16.00
2023-04-09T10:52:30.573Z,13.60
2023-04-09T10:55:38.725Z,13.50
2023-04-09T10:58:39.599Z,14.10
2023-04-09T11:01:41.134Z,13.80
2023-04-09T11:05:24.930Z,14.70
2023-04-09T11:08:33.755Z,14.70
2023-04-09T11:11:36.071Z,15.40
2023-04-09T11:14:37.136Z,16.80
2023-04-09T11:17:38.075Z,17.20
2023-04-09T11:20:40.747Z,18.40
2023-04-09T11:23:42.737Z,18.50
2023-04-09T11:26:43.676Z,18.80
2023-04-09T11:29:44.539Z,19.00
2023-04-09T11:32:46.705Z,17.40
2023-04-09T11:35:48.553Z,17.60
2023-04-09T11:38:52.881Z,18.60
2023-04-09T11:41:54.104Z,17.10
2023-04-09T11:44:55.359Z,18.50
2023-04-09T11:47:57.684Z,16.70
2023-04-09T11:50:59.049Z,17.70
2023-04-09T11:54:05.595Z,17.70
2023-04-09T11:57:07.042Z,18.50
2023-04-09T12:00:18.222Z,19.00
2023-04-09T12:03:19.655Z,19.80
2023-04-09T12:06:23.265Z,19.90
2023-04-09T12:09:24.932Z,19.70
2023-04-09T12:12:25.994Z,20.50
2023-04-09T12:15:27.404Z,20.40
2023-04-09T12:18:28.391Z,20.20
2023-04-09T12:21:50.562Z,20.60
2023-04-09T12:24:51.925Z,21.10
2023-04-09T12:27:54.535Z,20.60
2023-04-09T12:30:55.693Z,20.00
2023-04-09T12:33:56.980Z,20.40
2023-04-09T12:36:58.140Z,20.00
2023-04-09T12:39:58.816Z,22.00
2023-04-09T12:43:00.086Z,21.80
2023-04-09T12:46:01.384Z,20.00
2023-04-09T12:49:02.473Z,19.20
2023-04-09T12:52:03.498Z,19.50
2023-04-09T12:55:06.127Z,19.80
2023-04-09T12:58:07.210Z,20.90
2023-04-09T13:01:08.678Z,21.60
2023-04-09T13:04:09.970Z,20.40
2023-04-09T13:07:13.195Z,21.00
2023-04-09T13:10:14.184Z,21.30
2023-04-09T13:13:15.025Z,19.20
2023-04-09T13:16:16.569Z,20.30
2023-04-09T13:19:17.361Z,20.00
2023-04-09T13:22:19.316Z,21.80
2023-04-09T13:25:20.960Z,21.10
2023-04-09T13:28:21.703Z,21.60
2023-04-09T13:31:23.215Z,21.90
2023-04-09T13:34:25.564Z,20.60
2023-04-09T13:37:26.802Z,22.20
2023-04-09T13:40:28.004Z,22.60
2023-04-09T13:43:29.499Z,23.30
2023-04-09T13:46:30.396Z,24.00
2023-04-09T13:49:31.675Z,24.40
2023-04-09T13:52:33.298Z,24.50
2023-04-09T13:55:34.485Z,24.30
2023-04-09T13:58:35.245Z,26.10
2023-04-09T14:01:36.609Z,26.30
2023-04-09T14:04:38.132Z,20.80
2023-04-09T14:07:39.368Z,23.60
2023-04-09T14:10:40.225Z,24.60
2023-04-09T14:13:41.196Z,23.40
2023-04-09T14:16:42.360Z,26.10
2023-04-09T14:19:43.685Z,26.40
2023-04-09T14:22:49.325Z,27.50
2023-04-09T14:25:50.595Z,27.50
2023-04-09T14:28:52.243Z,28.00
2023-04-09T14:31:57.141Z,28.30
2023-04-09T14:34:58.504Z,28.80
2023-04-09T14:37:59.275Z,27.10
2023-04-09T14:41:00.099Z,27.80
2023-04-09T14:44:01.086Z,27.30
2023-04-09T14:47:02.130Z,27.70
2023-04-09T14:50:03.535Z,27.10
2023-04-09T14:53:05.108Z,28.00
2023-04-09T14:56:06.818Z,28.30
2023-04-09T14:59:07.870Z,28.40
2023-04-09T15:02:08.784Z,26.20
2023-04-09T15:05:11.037Z,23.20
2023-04-09T15:08:13.513Z,25.90
2023-04-09T15:11:20.329Z,27.50
2023-04-09T15:14:21.683Z,28.10
2023-04-09T15:17:24.178Z,24.10
2023-04-09T15:20:25.229Z,20.70
2023-04-09T15:23:26.045Z,21.60
2023-04-09T15:26:30.013Z,22.30
2023-04-09T15:29:32.879Z,24.50
2023-04-09T15:32:33.801Z,23.20
2023-04-09T15:35:36.558Z,23.40
2023-04-09T15:38:37.856Z,22.10
2023-04-09T15:41:40.055Z,22.70
2023-04-09T15:44:41.679Z,23.30
2023-04-09T15:47:44.293Z,23.00
2023-04-09T15:50:46.702Z,23.10
2023-04-09T15:53:47.646Z,21.90
2023-04-09T15:56:48.432Z,21.80
2023-04-09T15:59:49.494Z,21.10
2023-04-09T16:02:50.687Z,21.90
2023-04-09T16:05:51.421Z,21.80
2023-04-09T16:08:53.110Z,22.20
2023-04-09T16:11:54.738Z,21.70
2023-04-09T16:14:56.031Z,21.20
2023-04-09T16:17:57.319Z,19.80
2023-04-09T16:20:58.725Z,19.70
2023-04-09T16:24:01.525Z,19.20
2023-04-09T16:27:02.290Z,18.30
2023-04-09T16:30:03.688Z,17.70
2023-04-09T16:33:04.933Z,17.30
2023-04-09T16:36:06.464Z,17.50
2023-04-09T16:39:07.510Z,17.10
2023-04-09T16:42:08.532Z,17.00
2023-04-09T16:45:11.171Z,17.10
2023-04-09T16:48:13.001Z,17.10
2023-04-09T16:51:13.922Z,16.90
2023-04-09T16:54:14.770Z,16.50
2023-04-09T16:57:16.665Z,16.50
2023-04-09T17:00:18.385Z,16.30
2023-04-09T17:03:19.762Z,15.80
2023-04-09T17:06:20.943Z,15.80
2023-04-09T17:09:21.861Z,15.70
2023-04-09T17:12:24.539Z,15.40
2023-04-09T17:15:26.058Z,15.40
2023-04-09T17:18:27.335Z,15.20
2023-04-09T17:21:28.543Z,14.90
2023-04-09T17:24:30.340Z,14.50
2023-04-09T17:27:31.617Z,14.30
2023-04-09T17:30:34.982Z,14.30
2023-04-09T17:33:36.139Z,14.00
2023-04-09T17:36:37.738Z,13.70
2023-04-09T17:39:38.659Z,13.50
2023-04-09T17:42:39.976Z,13.20
2023-04-09T17:45:42.613Z,12.90
2023-04-09T17:48:44.753Z,12.90
2023-04-09T17:51:45.910Z,12.30
2023-04-09T17:54:47.429Z,12.00
2023-04-09T17:57:48.795Z,11.60
2023-04-09T18:00:49.694Z,11.40
2023-04-09T18:03:50.655Z,11.40
2023-04-09T18:06:52.161Z,11.20
2023-04-09T18:09:53.149Z,11.00
2023-04-09T18:12:54.436Z,10.70
2023-04-09T18:15:55.487Z,10.60
2023-04-09T18:18:56.862Z,10.30
2023-04-09T18:21:57.895Z,10.30
2023-04-09T18:24:58.665Z,10.10
2023-04-09T18:27:59.488Z,10.00
2023-04-09T18:31:00.358Z,10.00
2023-04-09T18:34:01.555Z,9.90
2023-04-09T18:37:02.626Z,9.80
2023-04-09T18:40:04.410Z,9.60
2023-04-09T18:43:05.453Z,9.40
2023-04-09T18:46:06.906Z,9.40
2023-04-09T18:49:08.239Z,9.30
2023-04-09T18:52:10.481Z,9.10
2023-04-09T18:55:12.293Z,9.00
2023-04-09T18:58:15.142Z,9.00
2023-04-09T19:01:17.695Z,9.00
2023-04-09T19:04:18.814Z,8.90
2023-04-09T19:07:20.140Z,8.90
2023-04-09T19:10:21.087Z,9.00
2023-04-09T19:13:22.255Z,8.80
2023-04-09T19:16:23.235Z,8.70
2023-04-09T19:19:24.567Z,8.60
2023-04-09T19:22:26.097Z,8.60
2023-04-09T19:25:28.952Z,8.50
2023-04-09T19:28:30.440Z,8.30
2023-04-09T19:31:32.589Z,8.20
2023-04-09T19:34:33.628Z,8.10
2023-04-09T19:37:34.948Z,8.00
2023-04-09T19:40:36.479Z,8.00
2023-04-09T19:43:39.194Z,7.90
2023-04-09T19:46:40.474Z,8.00
2023-04-09T19:49:42.087Z,8.00
2023-04-09T19:52:43.138Z,7.90
2023-04-09T19:55:44.120Z,7.80
2023-04-09T19:58:45.339Z,7.80
2023-04-09T20:01:48.223Z,7.80
2023-04-09T20:04:49.504Z,7.80
2023-04-09T20:07:52.901Z,7.80
2023-04-09T20:10:54.021Z,7.70
2023-04-09T20:13:54.962Z,7.50
2023-04-09T20:16:57.029Z,7.50
2023-04-09T20:19:58.097Z,7.40
2023-04-09T20:22:59.288Z,7.30
2023-04-09T20:26:00.551Z,7.00
2023-04-09T20:29:02.041Z,7.00
2023-04-09T20:32:03.823Z,6.90
2023-04-09T20:35:05.944Z,6.90
2023-04-09T20:38:06.958Z,6.90
2023-04-09T20:41:07.840Z,6.80
2023-04-09T20:44:08.820Z,6.90
2023-04-09T20:47:09.795Z,6.90
2023-04-09T20:50:11.282Z,6.80
2023-04-09T20:53:12.155Z,6.70
2023-04-09T20:56:13.373Z,6.60
2023-04-09T20:59:15.282Z,6.50
2023-04-09T21:02:17.794Z,6.50
2023-04-09T21:05:23.836Z,6.40
2023-04-09T21:08:25.168Z,6.40
2023-04-09T21:11:26.025Z,6.30
2023-04-09T21:14:26.827Z,6.20
2023-04-09T21:17:33.120Z,6.10
2023-04-09T21:20:34.008Z,6.10
2023-04-09T21:23:34.931Z,6.00
2023-04-09T21:26:49.264Z,6.00
2023-04-09T21:29:51.949Z,6.00
2023-04-09T21:32:54.714Z,6.00
2023-04-09T21:35:56.164Z,5.90
2023-04-09T21:38:57.704Z,5.80
2023-04-09T21:41:58.888Z,5.80
2023-04-09T21:44:59.879Z,5.70
2023-04-09T21:48:00.835Z,5.50
2023-04-09T21:51:02.060Z,5.40
2023-04-09T21:54:11.864Z,5.40
2023-04-09T21:57:13.187Z,5.30
2023-04-09T22:00:16.464Z,5.30
2023-04-09T22:03:17.710Z,5.30
2023-04-09T22:06:19.762Z,5.30
2023-04-09T22:09:20.731Z,5.30
2023-04-09T22:12:21.973Z,5.30
2023-04-09T22:15:23.267Z,5.30
2023-04-09T22:18:24.071Z,5.10
2023-04-09T22:21:26.196Z,5.10
2023-04-09T22:24:28.934Z,5.10
2023-04-09T22:27:30.127Z,5.10
2023-04-09T22:30:31.668Z,5.10
2023-04-09T22:33:32.992Z,5.10
2023-04-09T22:36:34.074Z,5.10
2023-04-09T22:39:35.390Z,5.00
2023-04-09T22:42:36.716Z,5.00
2023-04-09T22:45:37.938Z,5.00
2023-04-09T22:48:55.554Z,4.90
2023-04-09T22:51:56.646Z,4.90
2023-04-09T22:54:57.678Z,4.90
2023-04-09T22:57:59.823Z,4.90
2023-04-09T23:01:00.699Z,4.90
2023-04-09T23:04:01.785Z,4.80
2023-04-09T23:07:02.915Z,4.70
2023-04-09T23:10:03.744Z,4.70
2023-04-09T23:13:04.660Z,4.70
2023-04-09T23:16:10.030Z,4.70
2023-04-09T23:19:11.615Z,4.70
2023-04-09T23:22:12.416Z,4.70
2023-04-09T23:25:14.976Z,4.70
2023-04-09T23:28:16.379Z,4.70
2023-04-09T23:31:17.263Z,4.60
2023-04-09T23:34:17.972Z,4.60
2023-04-09T23:37:19.427Z,4.60
2023-04-09T23:40:20.544Z,4.60
2023-04-09T23:43:21.588Z,4.50
2023-04-09T23:46:23.130Z,4.50
2023-04-09T23:49:23.929Z,4.50
2023-04-09T23:52:27.655Z,4.40
2023-04-09T23:55:28.993Z,4.30
2023-04-09T23:58:29.915Z,4.30
